Time;durP1;ratioP1;P1;durP2;ratioP2;P2;SDS_P1;SDS_P2;PMS_P1;PMS_P2;Temp;Humidity;BMP_temperature;BMP_pressure;BME280_temperature;BME280_humidity;BME280_pressure;Samples;Min_cycle;Max_cycle;Signal;HPM_P1;HPM_P2
2022/08/13 00:00:21;;;;;;;;;;;;;;;23.57;40.27;95682.41;10344106;28;1821;-55
2022/08/13 00:05:24;;;;;;;;;;;;;;;23.57;40.51;95690.34;10341637;28;1899;-55
2022/08/13 00:10:28;;;;;;;;;;;;;;;23.58;40.57;95691.88;10341632;28;1797;-54
2022/08/13 00:15:33;;;;;;;;;;;;;;;23.58;40.36;95688.44;10337517;28;1881;-56
2022/08/13 00:20:38;;;;;;;;;;;;;;;23.59;40.26;95693.47;10342674;28;1907;-56
2022/08/13 00:25:38;;;;;;;;;;;;;;;23.59;40.22;95687.38;10341388;28;1804;-55
2022/08/13 00:30:39;;;;;;;;;;;;;;;23.58;40.32;95691.09;10339135;28;1857;-54
2022/08/13 00:35:41;;;;;;;;;;;;;;;23.57;40.19;95690.34;10340211;28;1918;-54
2022/08/13 00:40:45;;;;;;;;;;;;;;;23.57;40.45;95690.34;10335756;28;1995;-55
2022/08/13 00:45:46;;;;;;;;;;;;;;;23.58;40.25;95686.59;10340851;28;1856;-55
2022/08/13 00:50:50;;;;;;;;;;;;;;;23.58;40.09;95685.81;10337712;28;1940;-53
2022/08/13 00:55:55;;;;;;;;;;;;;;;23.58;40.22;95678.66;10337868;28;1847;-55
2022/08/13 01:00:56;;;;;;;;;;;;;;;23.58;40.19;95681.31;10335493;28;1951;-54
2022/08/13 01:05:59;;;;;;;;;;;;;;;23.57;40.39;95666.53;10340452;28;1816;-55
2022/08/13 01:11:01;;;;;;;;;;;;;;;23.57;40.37;95663.06;10335317;28;1942;-53
2022/08/13 01:16:16;;;;;;;;;;;;;;;23.57;40.23;95663.88;10321205;28;1856;-55
2022/08/13 01:21:24;;;;;;;;;;;;;;;23.58;40.26;95662.78;10339146;28;1959;-54
2022/08/13 01:26:27;;;;;;;;;;;;;;;23.58;40.40;95657.50;10332694;28;2002;-54
2022/08/13 01:31:35;;;;;;;;;;;;;;;23.57;40.24;95658.56;10331886;28;1896;-52
2022/08/13 01:36:43;;;;;;;;;;;;;;;23.57;40.19;95661.22;10355011;28;2006;-56
2022/08/13 01:41:48;;;;;;;;;;;;;;;23.58;40.12;95662.78;10338070;28;2031;-54
2022/08/13 01:52:27;;;;;;;;;;;;;;;23.57;40.16;95653.28;10334144;28;1989;-53
2022/08/13 01:57:27;;;;;;;;;;;;;;;23.57;40.29;95657.78;10334104;28;1947;-52
2022/08/13 02:02:28;;;;;;;;;;;;;;;23.57;40.17;95652.50;10340961;28;1959;-55
2022/08/13 02:07:29;;;;;;;;;;;;;;;23.58;40.50;95659.34;10339949;28;1872;-56
2022/08/13 02:12:29;;;;;;;;;;;;;;;23.57;40.54;95652.50;10338782;28;1979;-55
2022/08/13 02:17:33;;;;;;;;;;;;;;;23.57;40.46;95655.94;10346017;28;1963;-55
2022/08/13 02:22:33;;;;;;;;;;;;;;;23.56;40.18;95654.34;10347896;28;1886;-56
2022/08/13 02:27:34;;;;;;;;;;;;;;;23.57;40.08;95642.69;10344246;28;2311;-55
2022/08/13 02:32:35;;;;;;;;;;;;;;;23.56;40.27;95646.41;10346645;28;2035;-54
2022/08/13 02:37:36;;;;;;;;;;;;;;;23.57;40.08;95653.28;10341622;28;2116;-53
2022/08/13 02:42:37;;;;;;;;;;;;;;;23.57;40.31;95653.28;10341958;28;2006;-56
2022/08/13 02:47:37;;;;;;;;;;;;;;;23.56;40.19;95650.91;10345366;28;1951;-56
2022/08/13 02:52:40;;;;;;;;;;;;;;;23.57;40.16;95648.00;10341781;28;1908;-55
2022/08/13 02:57:42;;;;;;;;;;;;;;;23.57;40.03;95653.28;10341424;28;2030;-52
2022/08/13 03:02:43;;;;;;;;;;;;;;;23.57;40.44;95647.22;10340360;28;2050;-54
2022/08/13 03:07:46;;;;;;;;;;;;;;;23.56;40.03;95650.91;10339367;28;1958;-53
2022/08/13 03:12:53;;;;;;;;;;;;;;;23.56;40.29;95646.41;10340013;28;1988;-55
2022/08/13 03:17:53;;;;;;;;;;;;;;;23.56;40.27;95638.47;10341227;28;1955;-53
2022/08/13 03:22:58;;;;;;;;;;;;;;;23.57;40.14;95636.63;10328088;28;1969;-55
2022/08/13 03:27:58;;;;;;;;;;;;;;;23.55;40.11;95639.56;10341077;28;1970;-55
2022/08/13 03:33:01;;;;;;;;;;;;;;;23.56;40.27;95643.75;10322158;28;1950;-56
2022/08/13 03:38:03;;;;;;;;;;;;;;;23.55;40.10;95650.16;10345685;28;1930;-54
2022/08/13 03:43:07;;;;;;;;;;;;;;;23.56;40.36;95646.41;10340024;28;1917;-55
2022/08/13 03:48:07;;;;;;;;;;;;;;;23.57;40.17;95652.50;10355231;28;1963;-55
2022/08/13 03:53:09;;;;;;;;;;;;;;;23.56;40.25;95645.63;10341510;28;1928;-55
2022/08/13 03:58:09;;;;;;;;;;;;;;;23.55;40.23;95644.84;10342941;28;2014;-55
2022/08/13 04:03:17;;;;;;;;;;;;;;;23.56;40.21;95651.72;10338784;28;2011;-55
2022/08/13 04:08:17;;;;;;;;;;;;;;;23.55;40.13;95647.50;10338091;28;2029;-56
2022/08/13 04:13:19;;;;;;;;;;;;;;;23.55;39.96;95647.50;10341985;28;1990;-53
2022/08/13 04:18:19;;;;;;;;;;;;;;;23.56;40.09;95659.66;10344601;28;2069;-56
2022/08/13 04:23:19;;;;;;;;;;;;;;;23.56;40.23;95650.91;10335630;28;1886;-54
2022/08/13 04:28:21;;;;;;;;;;;;;;;23.56;40.07;95642.97;10322433;28;1897;-54
2022/08/13 04:33:22;;;;;;;;;;;;;;;23.55;39.86;95639.56;10341340;28;1973;-54
2022/08/13 04:38:23;;;;;;;;;;;;;;;23.55;39.76;95639.56;10341523;28;2103;-55
2022/08/13 04:43:23;;;;;;;;;;;;;;;23.56;39.97;95646.41;10337537;28;1961;-54
2022/08/13 04:48:24;;;;;;;;;;;;;;;23.54;39.90;95645.91;10334936;28;1944;-54
2022/08/13 04:53:29;;;;;;;;;;;;;;;23.54;39.92;95643.28;10341787;28;1927;-55
2022/08/13 04:58:33;;;;;;;;;;;;;;;23.54;40.32;95637.97;10333900;28;1992;-56
2022/08/13 05:03:38;;;;;;;;;;;;;;;23.54;40.24;95622.13;10339064;28;2007;-53
2022/08/13 05:08:39;;;;;;;;;;;;;;;23.54;39.99;95613.38;10336413;28;2016;-55
2022/08/13 05:13:40;;;;;;;;;;;;;;;23.57;39.90;95610.16;10320822;28;2025;-55
2022/08/13 05:18:45;;;;;;;;;;;;;;;23.55;39.96;95615.75;10340433;28;1881;-54
2022/08/13 05:23:46;;;;;;;;;;;;;;;23.55;40.20;95615.75;10335151;28;1934;-55
2022/08/13 05:28:47;;;;;;;;;;;;;;;23.56;40.05;95617.31;10338582;28;1916;-55
2022/08/13 05:33:48;;;;;;;;;;;;;;;23.56;40.08;95622.59;10334390;28;1925;-55
2022/08/13 05:38:49;;;;;;;;;;;;;;;23.55;40.08;95623.69;10341412;28;1952;-53
2022/08/13 05:43:51;;;;;;;;;;;;;;;23.57;40.26;95620.75;10348693;28;1970;-56
2022/08/13 05:48:57;;;;;;;;;;;;;;;23.56;40.47;95613.88;10343840;28;2018;-52
2022/08/13 05:53:59;;;;;;;;;;;;;;;23.57;40.20;95629.47;10363794;28;1931;-54
2022/08/13 05:58:59;;;;;;;;;;;;;;;23.55;40.19;95626.34;10344677;28;1908;-54
2022/08/13 06:04:02;;;;;;;;;;;;;;;23.57;40.08;95626.03;10348355;28;1903;-57
2022/08/13 06:09:04;;;;;;;;;;;;;;;23.55;40.13;95623.69;10343638;28;1976;-55
2022/08/13 06:14:04;;;;;;;;;;;;;;;23.56;40.40;95619.97;10339825;28;1868;-56
2022/08/13 06:19:05;;;;;;;;;;;;;;;23.56;40.36;95619.97;10342202;28;1864;-54
2022/08/13 06:24:06;;;;;;;;;;;;;;;23.56;40.21;95625.25;10345358;28;2018;-55
2022/08/13 06:29:06;;;;;;;;;;;;;;;23.56;40.32;95629.75;10343195;28;1864;-55
2022/08/13 06:34:09;;;;;;;;;;;;;;;23.57;40.19;95621.53;10328227;28;2032;-53
2022/08/13 06:39:09;;;;;;;;;;;;;;;23.57;40.47;95621.53;10343832;28;1952;-54
2022/08/13 06:44:11;;;;;;;;;;;;;;;23.55;40.08;95623.69;10348407;28;1956;-55
2022/08/13 06:49:11;;;;;;;;;;;;;;;23.57;40.17;95620.75;10343438;28;1880;-56
2022/08/13 06:54:11;;;;;;;;;;;;;;;23.57;40.16;95631.31;10346955;28;1921;-56
2022/08/13 06:59:13;;;;;;;;;;;;;;;23.57;40.47;95629.47;10343703;28;1992;-56
2022/08/13 07:04:19;;;;;;;;;;;;;;;23.56;40.21;95629.75;10344641;28;1978;-55
2022/08/13 07:09:19;;;;;;;;;;;;;;;23.58;40.60;95643.47;10343650;28;1911;-54
2022/08/13 07:14:20;;;;;;;;;;;;;;;23.57;40.30;95642.69;10340330;28;2050;-55
2022/08/13 07:19:22;;;;;;;;;;;;;;;23.57;40.45;95642.69;10343044;28;2000;-55
2022/08/13 07:24:23;;;;;;;;;;;;;;;23.58;40.26;95632.88;10342179;28;1953;-56
2022/08/13 07:29:24;;;;;;;;;;;;;;;23.58;40.71;95633.66;10368809;28;2009;-52
2022/08/13 07:34:28;;;;;;;;;;;;;;;23.58;40.49;95638.97;10337835;28;2003;-56
2022/08/13 07:39:30;;;;;;;;;;;;;;;23.59;40.56;95637.09;10339595;28;1986;-55
2022/08/13 07:44:30;;;;;;;;;;;;;;;23.59;40.68;95632.59;10344600;28;2395;-55
2022/08/13 07:49:32;;;;;;;;;;;;;;;23.59;40.68;95634.47;10338816;28;2003;-55
2022/08/13 07:54:34;;;;;;;;;;;;;;;23.60;40.67;95636.81;10323745;28;1931;-56
2022/08/13 07:59:36;;;;;;;;;;;;;;;23.59;40.53;95639.75;10325270;28;1944;-54
2022/08/13 08:04:37;;;;;;;;;;;;;;;23.59;40.62;95640.53;10345231;28;1964;-55
2022/08/13 08:09:37;;;;;;;;;;;;;;;23.59;40.62;95645.84;10324891;28;1907;-54
2022/08/13 08:14:38;;;;;;;;;;;;;;;23.60;40.74;95644.75;10340740;28;1995;-55
2022/08/13 08:19:39;;;;;;;;;;;;;;;23.59;40.42;95634.47;10336744;28;2011;-56
2022/08/13 08:24:42;;;;;;;;;;;;;;;23.59;40.64;95637.91;10340706;28;1967;-53
2022/08/13 08:29:46;;;;;;;;;;;;;;;23.60;40.58;95639.44;10342890;28;1940;-56
2022/08/13 08:34:47;;;;;;;;;;;;;;;23.61;40.35;95637.59;10339884;28;1886;-55
2022/08/13 08:45:16;;;;;;;;;;;;;;;23.61;40.38;95641.03;10333810;28;1921;-56
2022/08/13 08:50:16;;;;;;;;;;;;;;;23.60;40.37;95636.81;10337873;28;1964;-55
2022/08/13 08:55:17;;;;;;;;;;;;;;;23.61;40.43;95642.88;10341787;28;1893;-53
2022/08/13 09:00:18;;;;;;;;;;;;;;;23.62;40.63;95647.88;10319529;28;2428;-56
2022/08/13 09:05:25;;;;;;;;;;;;;;;23.63;40.52;95643.38;10343218;28;1913;-56
2022/08/13 09:10:25;;;;;;;;;;;;;;;23.62;40.68;95645.22;10339712;28;1910;-54
2022/08/13 09:15:26;;;;;;;;;;;;;;;23.63;40.54;95641.53;10356183;28;1901;-56
2022/08/13 09:20:26;;;;;;;;;;;;;;;23.63;40.52;95641.53;10322349;28;2014;-56
2022/08/13 09:25:27;;;;;;;;;;;;;;;23.64;40.69;95637.78;10337636;28;1926;-55
2022/08/13 09:30:27;;;;;;;;;;;;;;;23.65;40.88;95644.66;10355549;28;1968;-55
2022/08/13 09:35:28;;;;;;;;;;;;;;;23.67;40.86;95641.72;10338140;28;1971;-54
2022/08/13 09:40:29;;;;;;;;;;;;;;;23.68;40.60;95648.59;10341020;28;1963;-55
2022/08/13 09:45:30;;;;;;;;;;;;;;;23.69;40.68;95644.84;10343065;28;1965;-54
2022/08/13 09:50:30;;;;;;;;;;;;;;;23.69;40.77;95639.56;10337273;28;1904;-54
2022/08/13 09:55:31;;;;;;;;;;;;;;;23.71;40.79;95643.47;10341923;28;1959;-54
2022/08/13 10:00:32;;;;;;;;;;;;;;;23.71;40.89;95643.47;10338991;28;1936;-56
2022/08/13 10:05:34;;;;;;;;;;;;;;;23.70;40.98;95631.31;10339374;28;1943;-55
2022/08/13 10:10:35;;;;;;;;;;;;;;;23.72;40.91;95638.97;10335190;28;1844;-55
2022/08/13 10:15:37;;;;;;;;;;;;;;;23.71;40.87;95638.19;10336268;28;1916;-56
2022/08/13 10:20:39;;;;;;;;;;;;;;;23.73;40.79;95635.22;10332818;28;1967;-54
2022/08/13 10:25:40;;;;;;;;;;;;;;;23.74;40.79;95634.94;10339752;28;1973;-53
2022/08/13 10:30:42;;;;;;;;;;;;;;;23.74;40.96;95629.63;10345984;28;1947;-55
2022/08/13 10:35:44;;;;;;;;;;;;;;;23.76;41.23;95632.75;10344122;28;1983;-53
2022/08/13 10:40:46;;;;;;;;;;;;;;;23.75;40.97;95622.47;10328163;28;1990;-53
2022/08/13 10:45:47;;;;;;;;;;;;;;;23.76;40.84;95616.88;10347607;28;1982;-55
2022/08/13 10:50:49;;;;;;;;;;;;;;;23.78;41.19;95606.03;10345698;28;1924;-54
2022/08/13 10:55:50;;;;;;;;;;;;;;;23.77;41.16;95605.22;10344946;28;1945;-54
2022/08/13 11:00:51;;;;;;;;;;;;;;;23.78;41.34;95600.72;10340911;28;1990;-55
2022/08/13 11:05:51;;;;;;;;;;;;;;;23.77;41.33;95604.44;10344044;28;1981;-56
2022/08/13 11:10:52;;;;;;;;;;;;;;;23.78;41.13;95606.03;10344031;28;1840;-55
2022/08/13 11:15:53;;;;;;;;;;;;;;;23.79;41.31;95605.72;10344491;28;1923;-54
2022/08/13 11:21:03;;;;;;;;;;;;;;;23.79;41.12;95605.72;10338397;28;1898;-56
2022/08/13 11:26:03;;;;;;;;;;;;;;;23.81;41.36;95608.06;10341199;28;1932;-55
2022/08/13 11:31:03;;;;;;;;;;;;;;;23.80;41.32;95601.97;10340054;28;1886;-56
2022/08/13 11:36:04;;;;;;;;;;;;;;;23.81;41.37;95600.91;10337675;28;1959;-55
2022/08/13 11:41:05;;;;;;;;;;;;;;;23.80;41.14;95594.03;10320814;28;1959;-56
2022/08/13 11:46:05;;;;;;;;;;;;;;;23.81;41.20;95587.69;10338445;28;2022;-54
2022/08/13 11:51:05;;;;;;;;;;;;;;;23.81;41.46;95598.25;10325048;28;1976;-55
2022/08/13 11:56:06;;;;;;;;;;;;;;;23.81;41.18;95600.91;10335830;28;1970;-54
2022/08/13 12:01:06;;;;;;;;;;;;;;;23.83;41.19;95587.38;10336018;28;1887;-55
2022/08/13 12:06:07;;;;;;;;;;;;;;;23.83;41.25;95588.16;10343493;28;1786;-54
2022/08/13 12:11:08;;;;;;;;;;;;;;;23.83;41.16;95593.47;10342103;28;1859;-55
2022/08/13 12:16:10;;;;;;;;;;;;;;;23.83;41.40;95604.03;10343972;28;1859;-56
2022/08/13 12:21:11;;;;;;;;;;;;;;;23.85;41.09;95593.16;10346035;28;1918;-55
2022/08/13 12:26:11;;;;;;;;;;;;;;;23.85;41.48;95607.19;10334069;28;1870;-55
2022/08/13 12:31:14;;;;;;;;;;;;;;;23.85;41.43;95604.53;10334808;28;2205;-55
2022/08/13 12:36:15;;;;;;;;;;;;;;;23.85;41.36;95593.94;10338146;28;1820;-56
2022/08/13 12:41:15;;;;;;;;;;;;;;;23.85;41.21;95596.59;10337366;28;1895;-53
2022/08/13 12:46:15;;;;;;;;;;;;;;;23.84;41.16;95602.97;10338587;28;1718;-53
2022/08/13 12:51:16;;;;;;;;;;;;;;;23.85;41.23;95585.22;10337336;28;1831;-54
2022/08/13 12:56:17;;;;;;;;;;;;;;;23.83;41.25;95590.81;10339999;28;1801;-54
2022/08/13 13:01:18;;;;;;;;;;;;;;;23.83;41.28;95590.81;10341326;28;1891;-55
2022/08/13 13:06:18;;;;;;;;;;;;;;;23.83;41.10;95593.47;10338487;28;1847;-55
2022/08/13 13:11:19;;;;;;;;;;;;;;;23.85;41.39;95590.50;10337761;28;1832;-57
2022/08/13 13:16:19;;;;;;;;;;;;;;;23.86;41.10;95600.81;10336664;28;1952;-56
2022/08/13 13:21:19;;;;;;;;;;;;;;;23.85;41.22;95595.78;10334904;28;2190;-54
2022/08/13 13:26:20;;;;;;;;;;;;;;;23.87;41.24;95598.94;10336661;28;1849;-56
2022/08/13 13:31:20;;;;;;;;;;;;;;;23.87;41.13;95596.28;10333661;28;1855;-55
2022/08/13 13:36:21;;;;;;;;;;;;;;;23.87;41.44;95589.13;10338732;28;1817;-56
2022/08/13 13:41:21;;;;;;;;;;;;;;;23.89;41.32;95586.19;10333564;28;2134;-55
2022/08/13 13:46:22;;;;;;;;;;;;;;;23.89;41.35;95588.81;10334094;28;1861;-54
2022/08/13 13:51:22;;;;;;;;;;;;;;;23.89;41.30;95591.47;10337197;28;1964;-52
2022/08/13 13:56:22;;;;;;;;;;;;;;;23.89;41.39;95591.47;10334162;28;1872;-55
2022/08/13 14:01:23;;;;;;;;;;;;;;;23.90;41.25;95582.47;10303775;28;1133135;-55
2022/08/13 14:06:24;;;;;;;;;;;;;;;23.91;41.28;95581.38;10346612;28;1908;-56
2022/08/13 14:11:24;;;;;;;;;;;;;;;23.91;41.23;95578.72;10342645;28;1881;-55
2022/08/13 14:16:25;;;;;;;;;;;;;;;23.91;41.57;95571.56;10346451;28;1872;-56
2022/08/13 14:21:27;;;;;;;;;;;;;;;23.92;41.54;95575.78;10324966;28;1961;-55
2022/08/13 14:26:29;;;;;;;;;;;;;;;23.93;41.45;95576.56;10346187;28;1901;-56
2022/08/13 14:31:33;;;;;;;;;;;;;;;23.92;41.32;95569.72;10342992;28;1737;-55
2022/08/13 14:36:33;;;;;;;;;;;;;;;23.94;41.52;95565.69;10346464;28;1784;-55
2022/08/13 14:41:35;;;;;;;;;;;;;;;23.94;41.70;95554.31;10339475;28;1966;-56
2022/08/13 14:46:35;;;;;;;;;;;;;;;23.92;41.73;95551.97;10341459;28;1872;-54
2022/08/13 14:51:36;;;;;;;;;;;;;;;23.93;41.30;95548.22;10346938;28;1757;-55
2022/08/13 14:56:36;;;;;;;;;;;;;;;23.94;41.37;95535.78;10345824;28;1955;-54
2022/08/13 15:01:37;;;;;;;;;;;;;;;23.94;41.30;95539.22;10343312;28;1927;-53
2022/08/13 15:06:37;;;;;;;;;;;;;;;23.94;41.38;95533.91;10325715;28;1834;-56
2022/08/13 15:11:37;;;;;;;;;;;;;;;23.95;41.44;95537.31;10340136;28;1832;-57
2022/08/13 15:16:39;;;;;;;;;;;;;;;23.93;41.57;95529.69;10324913;28;1863;-57
2022/08/13 15:21:39;;;;;;;;;;;;;;;23.94;41.46;95531.28;10353219;28;1961;-54
2022/08/13 15:26:40;;;;;;;;;;;;;;;23.94;41.43;95541.06;10343150;28;1814;-54
2022/08/13 15:31:40;;;;;;;;;;;;;;;23.94;41.29;95531.28;10344442;28;2224;-53
2022/08/13 15:36:40;;;;;;;;;;;;;;;23.95;41.41;95524.09;10345582;28;1899;-56
2022/08/13 15:41:43;;;;;;;;;;;;;;;23.94;41.35;95520.69;10341979;28;1887;-54
2022/08/13 15:46:43;;;;;;;;;;;;;;;23.94;41.25;95510.09;10344097;28;1844;-54
2022/08/13 15:51:44;;;;;;;;;;;;;;;23.94;41.54;95504.78;10337066;28;1801;-56
2022/08/13 15:56:44;;;;;;;;;;;;;;;23.94;41.58;95502.16;10338162;28;1888;-52
2022/08/13 16:01:45;;;;;;;;;;;;;;;23.94;41.31;95502.16;10345919;28;1918;-55
2022/08/13 16:06:47;;;;;;;;;;;;;;;23.94;41.48;95502.16;10337842;28;1833;-55
2022/08/13 16:11:47;;;;;;;;;;;;;;;23.95;41.17;95497.63;10336797;28;1851;-54
2022/08/13 16:16:54;;;;;;;;;;;;;;;23.95;41.48;95493.09;10342865;28;1836;-55
2022/08/13 16:21:55;;;;;;;;;;;;;;;23.95;41.37;95487.03;10340227;28;1891;-54
2022/08/13 16:26:56;;;;;;;;;;;;;;;23.95;41.36;95500.25;10342164;28;1758;-55
2022/08/13 16:31:57;;;;;;;;;;;;;;;23.95;41.24;95495.75;10340987;28;1847;-56
2022/08/13 16:36:58;;;;;;;;;;;;;;;23.94;41.18;95480.97;10343276;28;1758;-55
2022/08/13 16:42:00;;;;;;;;;;;;;;;23.95;41.62;95484.38;10336800;28;1989;-52
2022/08/13 16:47:00;;;;;;;;;;;;;;;23.94;41.20;95475.69;10340657;28;1835;-55
2022/08/13 16:52:01;;;;;;;;;;;;;;;23.94;41.15;95473.03;10337172;28;1832;-54
2022/08/13 16:57:02;;;;;;;;;;;;;;;23.94;41.20;95473.03;10335948;28;1981;-56
2022/08/13 17:02:03;;;;;;;;;;;;;;;23.94;41.45;95473.03;10336095;28;1906;-57
2022/08/13 17:12:23;;;;;;;;;;;;;;;23.94;41.24;95475.69;10333576;28;2100;-56
2022/08/13 17:17:24;;;;;;;;;;;;;;;23.95;41.17;95474.56;10341128;28;1866;-54
2022/08/13 17:22:25;;;;;;;;;;;;;;;23.94;41.21;95473.03;10339139;28;2068;-54
2022/08/13 17:27:25;;;;;;;;;;;;;;;23.95;41.15;95479.88;10340400;28;1918;-56
2022/08/13 17:32:26;;;;;;;;;;;;;;;23.95;41.36;95479.88;10340850;28;1851;-55
2022/08/13 17:37:27;;;;;;;;;;;;;;;23.95;41.27;95474.56;10336145;28;1871;-56
2022/08/13 17:42:27;;;;;;;;;;;;;;;23.95;41.35;95474.56;10336478;28;1891;-56
2022/08/13 17:47:27;;;;;;;;;;;;;;;23.95;41.38;95473.78;10338507;28;1745;-56
2022/08/13 17:52:28;;;;;;;;;;;;;;;23.97;41.36;95476.91;10336487;28;1816;-57
2022/08/13 17:57:28;;;;;;;;;;;;;;;23.96;41.13;95476.16;10340107;28;1773;-53
2022/08/13 18:02:30;;;;;;;;;;;;;;;23.96;41.15;95478.81;10338872;28;1941;-55
2022/08/13 18:07:31;;;;;;;;;;;;;;;23.97;41.41;95488.28;10337132;28;1831;-53
2022/08/13 18:12:31;;;;;;;;;;;;;;;23.96;41.29;95485.97;10335558;28;1865;-50
2022/08/13 18:17:34;;;;;;;;;;;;;;;23.97;41.29;95479.56;10337587;28;1918;-51
2022/08/13 18:22:35;;;;;;;;;;;;;;;23.96;41.22;95481.44;10334003;28;1989;-55
2022/08/13 18:27:36;;;;;;;;;;;;;;;23.97;41.20;95485.66;10335201;28;2078;-51
2022/08/13 18:32:37;;;;;;;;;;;;;;;23.96;41.26;95478.00;10337400;28;1985;-54
2022/08/13 18:37:37;;;;;;;;;;;;;;;23.96;41.30;95478.81;10336050;28;1778;-55
2022/08/13 18:42:38;;;;;;;;;;;;;;;23.96;41.21;95476.16;10337689;28;2250;-53
2022/08/13 18:47:38;;;;;;;;;;;;;;;23.97;41.33;95485.66;10341241;28;1840;-53
2022/08/13 18:52:38;;;;;;;;;;;;;;;23.97;41.21;95482.22;10370446;28;1924;-55
2022/08/13 18:57:39;;;;;;;;;;;;;;;23.97;41.21;95483.00;10364015;28;1860;-53
2022/08/13 19:02:41;;;;;;;;;;;;;;;23.96;41.42;95492.03;10346823;28;1922;-53
2022/08/13 19:07:46;;;;;;;;;;;;;;;23.97;41.14;95496.25;10339400;28;1960;-55
2022/08/13 19:12:47;;;;;;;;;;;;;;;23.98;41.41;95499.69;10342739;28;1902;-55
2022/08/13 19:17:49;;;;;;;;;;;;;;;23.97;41.30;95498.88;10343922;28;1806;-53
2022/08/13 19:22:50;;;;;;;;;;;;;;;23.97;41.16;95506.84;10337658;28;1938;-54
2022/08/13 19:27:50;;;;;;;;;;;;;;;23.96;41.33;95497.34;10343809;28;1824;-56
2022/08/13 19:32:51;;;;;;;;;;;;;;;23.97;41.16;95493.59;10345631;28;1808;-54
2022/08/13 19:37:52;;;;;;;;;;;;;;;23.97;41.30;95493.59;10337547;28;1864;-55
2022/08/13 19:42:55;;;;;;;;;;;;;;;23.95;41.22;95493.09;10341424;28;1991;-54
2022/08/13 19:47:55;;;;;;;;;;;;;;;23.96;41.28;95486.75;10344242;28;1902;-50
2022/08/13 19:52:56;;;;;;;;;;;;;;;23.96;41.53;95481.44;10337476;28;1784;-54
2022/08/13 19:58:00;;;;;;;;;;;;;;;23.96;41.15;95478.81;10339338;28;1881;-55
2022/08/13 20:03:02;;;;;;;;;;;;;;;23.97;41.50;95475.06;10338804;28;1910;-54
2022/08/13 20:08:03;;;;;;;;;;;;;;;23.96;41.41;95484.09;10343186;28;1752;-55
2022/08/13 20:13:10;;;;;;;;;;;;;;;23.96;41.28;95480.66;10339719;28;1881;-55
2022/08/13 20:18:10;;;;;;;;;;;;;;;23.96;41.55;95484.09;10341656;28;1954;-54
2022/08/13 20:23:12;;;;;;;;;;;;;;;23.96;41.51;95478.00;10341329;28;1890;-53
2022/08/13 20:28:14;;;;;;;;;;;;;;;23.96;41.32;95481.44;10339219;28;1900;-55
2022/08/13 20:33:25;;;;;;;;;;;;;;;23.96;41.16;95478.81;10342819;28;1871;-53
2022/08/13 20:38:25;;;;;;;;;;;;;;;23.97;41.25;95477.72;10340400;28;1807;-55
2022/08/13 20:43:27;;;;;;;;;;;;;;;23.97;41.13;95475.06;10339527;28;1964;-54
2022/08/13 20:48:28;;;;;;;;;;;;;;;23.95;41.20;95468.50;10340476;28;1983;-55
2022/08/13 20:53:29;;;;;;;;;;;;;;;23.96;41.14;95462.91;10338977;28;1843;-55
2022/08/13 20:58:29;;;;;;;;;;;;;;;23.97;41.34;95476.91;10342356;28;1737;-55
2022/08/13 21:03:30;;;;;;;;;;;;;;;23.96;41.40;95478.00;10335002;28;1974;-53
2022/08/13 21:08:31;;;;;;;;;;;;;;;23.95;41.26;95469.28;10339262;28;1868;-54
2022/08/13 21:13:31;;;;;;;;;;;;;;;23.96;41.10;95464.78;10338991;28;1884;-56
2022/08/13 21:18:31;;;;;;;;;;;;;;;23.96;41.08;95465.56;10337747;28;1864;-55
2022/08/13 21:23:32;;;;;;;;;;;;;;;23.96;41.50;95472.72;10339997;28;1883;-53
2022/08/13 21:28:32;;;;;;;;;;;;;;;23.96;41.12;95470.06;10335289;28;1827;-53
2022/08/13 21:33:32;;;;;;;;;;;;;;;23.96;41.14;95470.06;10339745;28;1706;-49
2022/08/13 21:38:33;;;;;;;;;;;;;;;23.96;41.22;95465.56;10334436;28;1891;-53
2022/08/13 21:43:34;;;;;;;;;;;;;;;23.95;41.20;95456.03;10335675;28;1978;-53
2022/08/13 21:48:34;;;;;;;;;;;;;;;23.96;41.02;95460.28;10335513;28;1718;-53
2022/08/13 21:53:34;;;;;;;;;;;;;;;23.95;41.16;95464.00;10334552;28;1883;-54
2022/08/13 21:58:35;;;;;;;;;;;;;;;23.95;41.23;95458.69;10335451;28;1761;-55
2022/08/13 22:03:35;;;;;;;;;;;;;;;23.95;41.12;95466.63;10337738;28;1947;-54
2022/08/13 22:08:35;;;;;;;;;;;;;;;23.95;41.34;95461.34;10331526;28;1778;-53
2022/08/13 22:13:36;;;;;;;;;;;;;;;23.95;40.99;95460.56;10341185;28;1824;-51
2022/08/13 22:18:37;;;;;;;;;;;;;;;23.94;40.94;95461.66;10340256;28;1836;-53
2022/08/13 22:23:37;;;;;;;;;;;;;;;23.94;40.94;95456.34;10348939;28;1985;-55
2022/08/13 22:33:58;;;;;;;;;;;;;;;23.93;41.04;95460.84;10345665;28;1855;-54
2022/08/13 22:38:59;;;;;;;;;;;;;;;23.94;40.92;95459.78;10342921;28;1822;-55
2022/08/13 22:44:00;;;;;;;;;;;;;;;23.94;40.90;95451.84;10348424;28;1985;-55
2022/08/13 22:49:00;;;;;;;;;;;;;;;23.95;40.96;95452.59;10348561;28;1898;-55
2022/08/13 22:54:01;;;;;;;;;;;;;;;23.94;41.20;95457.16;10340922;28;1789;-55
2022/08/13 22:59:01;;;;;;;;;;;;;;;23.95;40.88;95457.91;10348429;28;1898;-53
2022/08/13 23:04:01;;;;;;;;;;;;;;;23.94;40.94;95451.84;10345951;28;1918;-54
2022/08/13 23:09:02;;;;;;;;;;;;;;;23.93;40.94;95444.19;10343244;28;1958;-54
2022/08/13 23:14:05;;;;;;;;;;;;;;;23.94;41.15;95457.16;10326598;28;1872;-53
2022/08/13 23:19:05;;;;;;;;;;;;;;;23.93;41.18;95444.19;10339711;28;1850;-54
2022/08/13 23:24:06;;;;;;;;;;;;;;;23.93;41.10;95446.84;10341347;28;1895;-56
2022/08/13 23:29:06;;;;;;;;;;;;;;;23.93;41.04;95444.97;10340545;28;1843;-54
2022/08/13 23:34:08;;;;;;;;;;;;;;;23.94;40.92;95451.84;10353408;28;1875;-53
2022/08/13 23:39:09;;;;;;;;;;;;;;;23.93;41.16;95450.28;10345572;28;1927;-53
2022/08/13 23:44:09;;;;;;;;;;;;;;;23.93;40.99;95455.56;10343770;28;1899;-56
2022/08/13 23:49:09;;;;;;;;;;;;;;;23.92;41.01;95454.03;10368438;28;1624;-55
2022/08/13 23:54:10;;;;;;;;;;;;;;;23.91;40.70;95439.19;10347835;28;2117;-53
2022/08/13 23:59:11;;;;;;;;;;;;;;;23.92;40.91;95440.78;10341939;28;1797;-56
